LGKF Airport Information

Runway Information
Runway 14 Length 7992 ft width 148 ft
Elevation 32 ft Threshold 0 ft Heading 146
Runway 32 Length 7992 ft Width 148 ft
Elevation 50 ft Threshold 912 ft Heading 326
Airport Frequencies
Type A/G Name RDO Frequency 563.7 MHZ
Type AFIS Name AFIS INFO Frequency 122.25 MHZ
Airport Navaids
Type NDB Name Kefallinia Frequency 318 KHZ
Type VOR-DME Name Kefallinia Frequency 115500 KHZ
Airport Weather Information & NOTAM
ADDS - METARS form results

(1930 UTC 26 January 2022)
Data provider http://aviationweather.gov/metar/data/
 
Forecast for: LGKF (KEFALLINIA , GR)
Text: TAF LGKF 261700Z 2618/2703 34010KT 9999 FEW015
Forecast period: 1800 UTC 26 January 2022 to 0300 UTC 27 January 2022
Forecast type: FROM: standard forecast or significant change
Winds: from the NNW (340 degrees) at 12 MPH (10 knots; 5.1 m/s)
Visibility: 6 or more miles (10+ km)
Ceiling: at least 12,000 feet AGL
Clouds: few clouds at 1500 feet AGL
Weather: no significant weather forecast for this period